Time;durP1;ratioP1;P1;durP2;ratioP2;P2;SDS_P1;SDS_P2;PMS_P1;PMS_P2;Temp;Humidity;BMP_temperature;BMP_pressure;BME280_temperature;BME280_humidity;BME280_pressure;Samples;Min_cycle;Max_cycle;Signal;HPM_P1;HPM_P2
2020/12/07 00:01:21;;;;;;;18.30;9.52;;;2.50;99.90;;;;;;4989118;28;20034;-79
2020/12/07 00:03:47;;;;;;;19.83;9.32;;;2.40;99.90;;;;;;4995112;28;20038;-80
2020/12/07 00:06:20;;;;;;;18.80;9.57;;;2.50;99.90;;;;;;4975172;28;20073;-80
2020/12/07 00:08:46;;;;;;;24.98;10.27;;;2.40;99.90;;;;;;4974315;28;20392;-79
2020/12/07 00:11:13;;;;;;;21.27;8.63;;;2.40;99.90;;;;;;4984738;28;20121;-79
2020/12/07 00:13:39;;;;;;;21.13;9.38;;;2.40;99.90;;;;;;4994961;28;20489;-79
2020/12/07 00:16:09;;;;;;;17.83;9.55;;;2.40;99.90;;;;;;4980117;28;20137;-80
2020/12/07 00:18:35;;;;;;;23.08;10.23;;;2.40;99.90;;;;;;4984581;28;20049;-79
2020/12/07 00:21:06;;;;;;;20.77;10.02;;;2.50;99.90;;;;;;4988276;28;20046;-79
2020/12/07 00:23:31;;;;;;;22.08;9.40;;;2.50;99.90;;;;;;4995897;28;20041;-79
2020/12/07 00:25:57;;;;;;;22.23;9.13;;;2.50;99.90;;;;;;4977850;28;20113;-79
2020/12/07 00:28:23;;;;;;;20.42;9.02;;;2.50;99.90;;;;;;5004837;28;20030;-79
2020/12/07 00:30:48;;;;;;;23.70;9.60;;;2.50;99.90;;;;;;5011979;28;20040;-79
2020/12/07 00:33:14;;;;;;;22.90;9.30;;;2.50;99.90;;;;;;5017099;28;20031;-80
2020/12/07 00:35:40;;;;;;;19.70;9.73;;;2.50;99.90;;;;;;5017713;28;20031;-79
2020/12/07 00:38:06;;;;;;;18.38;8.82;;;2.50;99.90;;;;;;5017745;28;20064;-79
2020/12/07 00:40:32;;;;;;;19.83;8.57;;;2.50;99.90;;;;;;5015981;28;20045;-80
2020/12/07 00:42:57;;;;;;;21.90;9.57;;;2.50;99.90;;;;;;4990677;28;20046;-80
2020/12/07 00:45:24;;;;;;;18.17;8.00;;;2.40;99.90;;;;;;4985088;28;20102;-80
2020/12/07 00:47:49;;;;;;;17.15;7.97;;;2.40;99.90;;;;;;4969262;28;20069;-80
2020/12/07 00:50:15;;;;;;;13.57;6.88;;;2.40;99.90;;;;;;4985047;28;20042;-80
2020/12/07 00:52:41;;;;;;;20.05;8.05;;;2.40;99.90;;;;;;4985539;28;20121;-80
2020/12/07 00:55:07;;;;;;;14.48;7.40;;;2.40;99.90;;;;;;4985839;28;20034;-80
2020/12/07 00:57:33;;;;;;;16.85;8.40;;;2.40;99.90;;;;;;4981287;28;20081;-80
2020/12/07 00:59:59;;;;;;;17.98;8.93;;;2.40;99.90;;;;;;4983988;28;20026;-79
2020/12/07 01:02:25;;;;;;;15.15;8.13;;;2.40;99.90;;;;;;4971320;28;20519;-80
2020/12/07 01:04:52;;;;;;;18.80;8.05;;;2.40;99.90;;;;;;4981630;28;20035;-80
2020/12/07 01:07:18;;;;;;;18.30;7.65;;;2.40;99.90;;;;;;4984616;28;20053;-80
2020/12/07 01:09:47;;;;;;;17.73;8.00;;;2.40;99.90;;;;;;4983920;28;20121;-79
2020/12/07 01:12:14;;;;;;;18.35;7.88;;;2.40;99.90;;;;;;5001139;28;20026;-80
2020/12/07 01:14:46;;;;;;;15.23;7.40;;;2.40;99.90;;;;;;4985681;28;20026;-80
2020/12/07 01:17:13;;;;;;;16.33;7.95;;;2.40;99.90;;;;;;4967179;28;20030;-80
2020/12/07 01:19:39;;;;;;;17.58;8.50;;;2.30;99.90;;;;;;4976572;28;20027;-80
2020/12/07 01:22:07;;;;;;;12.90;6.25;;;2.30;99.90;;;;;;4972969;28;20038;-80
2020/12/07 01:24:35;;;;;;;17.75;8.50;;;2.30;99.90;;;;;;4983805;28;20039;-80
2020/12/07 01:27:02;;;;;;;16.65;7.75;;;2.30;99.90;;;;;;4982644;28;20041;-80
2020/12/07 01:29:28;;;;;;;18.15;8.43;;;2.40;99.90;;;;;;4969476;28;20081;-80
2020/12/07 01:31:54;;;;;;;18.67;8.38;;;2.40;99.90;;;;;;4970910;28;20030;-80
2020/12/07 01:34:20;;;;;;;18.30;7.93;;;2.30;99.90;;;;;;5004771;28;20034;-80
2020/12/07 01:36:46;;;;;;;14.25;7.28;;;2.30;99.90;;;;;;4986614;28;20113;-81
2020/12/07 01:39:14;;;;;;;14.15;6.95;;;2.30;99.90;;;;;;4980452;28;20030;-81
2020/12/07 01:41:40;;;;;;;18.52;7.88;;;2.20;99.90;;;;;;5000668;28;20036;-80
2020/12/07 01:44:06;;;;;;;18.85;7.82;;;2.20;99.90;;;;;;4983759;28;20038;-80
2020/12/07 01:46:36;;;;;;;17.17;8.40;;;2.30;99.90;;;;;;4963048;28;20034;-80
2020/12/07 01:49:03;;;;;;;17.75;8.63;;;2.20;99.90;;;;;;4981551;28;20038;-80
2020/12/07 01:51:30;;;;;;;15.52;7.45;;;2.20;99.90;;;;;;4980040;28;20076;-80
2020/12/07 01:53:56;;;;;;;16.30;7.72;;;2.20;99.90;;;;;;4965426;28;20121;-80
2020/12/07 01:56:30;;;;;;;18.85;8.10;;;2.20;99.90;;;;;;4981815;28;20023;-80
2020/12/07 01:59:01;;;;;;;17.00;7.57;;;2.20;99.90;;;;;;4961008;28;20045;-80
2020/12/07 02:01:38;;;;;;;13.75;7.00;;;2.20;99.90;;;;;;4976961;28;20443;-80
2020/12/07 02:04:05;;;;;;;18.92;7.95;;;2.10;99.90;;;;;;4996483;28;20034;-80
2020/12/07 02:06:31;;;;;;;18.23;7.97;;;2.20;99.90;;;;;;4961708;28;20034;-80
2020/12/07 02:08:57;;;;;;;15.70;7.05;;;2.20;99.90;;;;;;4974674;28;20045;-80
2020/12/07 02:11:25;;;;;;;17.17;7.57;;;2.10;99.90;;;;;;4963480;28;20042;-80
2020/12/07 02:13:51;;;;;;;15.48;7.60;;;2.10;99.90;;;;;;4998353;28;20040;-80
2020/12/07 02:16:18;;;;;;;18.40;8.07;;;2.20;99.90;;;;;;4998883;28;20576;-80
2020/12/07 02:18:59;;;;;;;14.25;7.15;;;2.20;99.90;;;;;;4972530;28;20042;-79
2020/12/07 02:21:30;;;;;;;19.45;7.68;;;2.20;99.90;;;;;;4978356;28;20404;-80
2020/12/07 02:24:14;;;;;;;12.77;7.55;;;2.20;99.90;;;;;;4983826;28;20045;-80
2020/12/07 02:26:45;;;;;;;16.92;8.13;;;2.10;99.90;;;;;;4977165;28;20026;-80
2020/12/07 02:29:11;;;;;;;17.70;7.63;;;2.10;99.90;;;;;;4975319;28;20100;-80
2020/12/07 02:31:44;;;;;;;16.45;7.22;;;2.10;99.90;;;;;;4961954;28;20039;-80
2020/12/07 02:34:10;;;;;;;12.90;6.93;;;2.10;99.90;;;;;;4977077;28;20031;-79
2020/12/07 02:36:40;;;;;;;15.10;7.68;;;2.20;99.90;;;;;;4976471;28;20035;-80
2020/12/07 02:39:06;;;;;;;13.60;6.65;;;2.20;99.90;;;;;;4960080;28;20033;-80
2020/12/07 02:41:43;;;;;;;13.20;6.38;;;2.20;99.90;;;;;;4936762;28;20381;-80
2020/12/07 02:44:09;;;;;;;13.63;7.00;;;2.20;99.90;;;;;;4980039;28;20042;-80
2020/12/07 02:46:35;;;;;;;16.55;7.43;;;2.10;99.90;;;;;;4977635;28;20118;-80
2020/12/07 02:49:02;;;;;;;14.93;6.60;;;2.10;99.90;;;;;;4979379;28;20039;-80
2020/12/07 02:51:28;;;;;;;14.20;7.22;;;2.00;99.90;;;;;;4978410;28;20129;-80
2020/12/07 02:53:54;;;;;;;12.55;6.68;;;2.00;99.90;;;;;;4947356;28;20030;-80
2020/12/07 02:56:22;;;;;;;12.68;6.30;;;2.00;99.90;;;;;;4963710;28;20033;-80
2020/12/07 02:58:51;;;;;;;12.95;6.75;;;2.00;99.90;;;;;;4964103;28;20027;-79
2020/12/07 03:01:17;;;;;;;14.95;6.90;;;2.00;99.90;;;;;;4974832;28;20047;-80
2020/12/07 03:03:43;;;;;;;14.75;6.82;;;2.00;99.90;;;;;;4976070;28;20030;-80
2020/12/07 03:06:09;;;;;;;14.88;6.88;;;2.00;99.90;;;;;;4981038;28;20045;-80
2020/12/07 03:08:35;;;;;;;14.90;6.88;;;2.10;99.90;;;;;;4978215;28;20034;-80
2020/12/07 03:11:05;;;;;;;18.48;7.43;;;2.20;99.90;;;;;;4977916;28;20034;-80
2020/12/07 03:13:34;;;;;;;13.23;6.30;;;2.20;99.90;;;;;;4979288;28;20026;-79
2020/12/07 03:16:02;;;;;;;10.93;6.22;;;2.20;99.90;;;;;;4978619;28;20042;-80
2020/12/07 03:18:30;;;;;;;16.20;7.40;;;2.20;99.90;;;;;;4972723;28;20030;-79
2020/12/07 03:21:01;;;;;;;14.40;6.80;;;2.20;99.90;;;;;;4975747;28;20121;-79
2020/12/07 03:23:26;;;;;;;15.35;6.47;;;2.20;99.90;;;;;;4962881;28;20057;-80
2020/12/07 03:25:55;;;;;;;13.35;6.72;;;2.30;99.90;;;;;;4961997;28;20034;-79
2020/12/07 03:28:24;;;;;;;14.85;6.47;;;2.40;99.90;;;;;;4973570;28;20038;-80
2020/12/07 03:30:50;;;;;;;17.35;6.47;;;2.40;99.90;;;;;;4967883;28;20045;-79
2020/12/07 03:33:15;;;;;;;14.25;6.40;;;2.40;99.90;;;;;;4996298;28;20057;-80
2020/12/07 03:35:42;;;;;;;15.35;6.13;;;2.30;99.90;;;;;;4979013;28;20453;-80
2020/12/07 03:38:10;;;;;;;13.20;6.32;;;2.30;99.90;;;;;;4977024;28;20441;-79
2020/12/07 03:40:36;;;;;;;15.73;6.82;;;2.30;99.90;;;;;;4967374;28;20035;-80
2020/12/07 03:43:05;;;;;;;9.10;5.25;;;2.30;99.90;;;;;;4976307;28;20030;-79
2020/12/07 03:45:34;;;;;;;11.82;5.68;;;2.30;99.90;;;;;;4976574;28;20048;-79
2020/12/07 03:48:00;;;;;;;12.18;5.95;;;2.30;99.90;;;;;;4976726;28;20038;-79
2020/12/07 03:50:27;;;;;;;8.48;4.78;;;2.20;99.90;;;;;;4977862;28;20496;-79
2020/12/07 03:52:52;;;;;;;9.60;5.18;;;2.20;99.90;;;;;;4977261;28;20038;-80
2020/12/07 03:55:23;;;;;;;12.05;6.32;;;2.30;99.90;;;;;;4978449;28;20034;-79
2020/12/07 03:57:49;;;;;;;15.05;6.18;;;2.30;99.90;;;;;;4990662;28;20054;-79
2020/12/07 04:00:15;;;;;;;12.32;6.05;;;2.30;99.90;;;;;;4970447;28;20397;-79
2020/12/07 04:02:47;;;;;;;15.05;6.43;;;2.30;99.90;;;;;;4958492;28;20026;-79
2020/12/07 04:05:24;;;;;;;15.20;6.05;;;2.30;99.90;;;;;;4959232;28;20027;-79
2020/12/07 04:07:52;;;;;;;11.70;5.15;;;2.30;99.90;;;;;;4976036;28;20018;-78
2020/12/07 04:10:18;;;;;;;11.55;5.07;;;2.30;99.90;;;;;;4978330;28;20030;-79
2020/12/07 04:12:44;;;;;;;10.10;4.93;;;2.30;99.90;;;;;;4976945;28;20037;-79
2020/12/07 04:15:10;;;;;;;9.75;4.57;;;2.30;99.90;;;;;;4995422;28;20125;-80
2020/12/07 04:17:35;;;;;;;9.35;4.82;;;2.30;99.90;;;;;;4994445;28;20033;-79
2020/12/07 04:20:01;;;;;;;9.32;4.93;;;2.20;99.90;;;;;;4996037;28;20061;-79
2020/12/07 04:22:27;;;;;;;10.88;5.07;;;2.20;99.90;;;;;;4994894;28;20184;-79
2020/12/07 04:24:52;;;;;;;8.45;4.28;;;2.20;99.90;;;;;;4996441;28;20062;-79
2020/12/07 04:27:18;;;;;;;8.35;4.53;;;2.20;99.90;;;;;;4991751;28;20030;-78
2020/12/07 04:29:44;;;;;;;11.65;3.97;;;2.20;99.90;;;;;;4995067;28;20073;-79
2020/12/07 04:32:09;;;;;;;7.85;4.25;;;2.20;99.90;;;;;;4995274;28;20054;-79
2020/12/07 04:34:35;;;;;;;8.30;4.15;;;2.20;99.90;;;;;;4996651;28;20027;-79
2020/12/07 04:37:01;;;;;;;8.25;4.05;;;2.20;99.90;;;;;;4977500;28;20034;-79
2020/12/07 04:39:27;;;;;;;9.60;4.38;;;2.20;99.90;;;;;;4989445;28;20031;-79
2020/12/07 04:41:52;;;;;;;7.45;3.63;;;2.20;99.90;;;;;;4974625;28;20071;-79
2020/12/07 04:44:18;;;;;;;11.18;4.22;;;2.20;99.90;;;;;;4976700;28;20043;-79
2020/12/07 04:46:46;;;;;;;7.28;3.63;;;2.20;99.90;;;;;;4985822;28;20041;-79
2020/12/07 04:49:15;;;;;;;6.75;3.30;;;2.20;99.90;;;;;;4995743;28;20061;-79
2020/12/07 04:51:42;;;;;;;8.18;3.83;;;2.20;99.90;;;;;;4994984;28;20157;-79
2020/12/07 04:54:10;;;;;;;7.88;4.05;;;2.20;99.90;;;;;;4978218;28;20061;-79
2020/12/07 04:56:36;;;;;;;8.15;3.38;;;2.20;99.90;;;;;;4994028;28;20073;-79
2020/12/07 04:59:02;;;;;;;6.72;3.70;;;2.20;99.90;;;;;;4964488;28;20066;-79
2020/12/07 05:01:28;;;;;;;5.38;3.28;;;2.20;99.90;;;;;;4989980;28;20046;-78
2020/12/07 05:03:54;;;;;;;5.38;3.38;;;2.20;99.90;;;;;;4995684;28;20526;-79
2020/12/07 05:06:19;;;;;;;8.65;3.88;;;2.20;99.90;;;;;;4995525;28;20034;-79
2020/12/07 05:08:46;;;;;;;5.72;3.10;;;2.20;99.90;;;;;;4987827;28;20027;-78
2020/12/07 05:11:13;;;;;;;5.32;2.90;;;2.20;99.90;;;;;;4976384;28;20041;-79
2020/12/07 05:16:34;;;;;;;5.93;3.60;;;2.20;99.90;;;;;;4976306;28;20039;-79
2020/12/07 05:19:01;;;;;;;5.03;2.70;;;2.20;99.90;;;;;;4961703;28;20034;-79
2020/12/07 05:21:27;;;;;;;6.63;2.80;;;2.20;99.90;;;;;;4998051;28;20062;-79
2020/12/07 05:23:53;;;;;;;4.75;2.85;;;2.20;99.90;;;;;;4999581;28;20054;-78
2020/12/07 05:26:21;;;;;;;5.80;2.88;;;2.10;99.90;;;;;;4999067;28;20038;-79
2020/12/07 05:28:51;;;;;;;4.38;2.78;;;2.10;99.90;;;;;;4991473;28;20031;-78
2020/12/07 05:31:20;;;;;;;7.65;3.05;;;2.10;99.90;;;;;;4964269;28;20092;-79
2020/12/07 05:33:47;;;;;;;6.63;3.60;;;2.10;99.90;;;;;;4965628;28;20034;-79
2020/12/07 05:36:15;;;;;;;6.75;3.28;;;2.20;99.90;;;;;;5009637;22;20048;-75
2020/12/07 05:38:43;;;;;;;5.88;3.15;;;2.20;99.90;;;;;;5012742;28;20080;-76
2020/12/07 05:41:10;;;;;;;8.85;3.25;;;2.20;99.90;;;;;;5029660;28;20041;-76
2020/12/07 05:43:37;;;;;;;6.78;3.92;;;2.20;99.90;;;;;;5000578;28;20097;-77
2020/12/07 05:46:04;;;;;;;7.32;3.72;;;2.20;99.90;;;;;;5031342;28;20033;-76
2020/12/07 05:48:35;;;;;;;10.35;4.30;;;2.20;99.90;;;;;;5023850;28;20399;-76
2020/12/07 05:51:05;;;;;;;5.25;3.10;;;2.30;99.90;;;;;;5044132;28;20034;-76
2020/12/07 05:53:36;;;;;;;5.78;3.63;;;2.30;99.90;;;;;;4999871;28;20029;-76
2020/12/07 05:56:04;;;;;;;8.35;4.07;;;2.30;99.90;;;;;;5032193;28;20033;-76
2020/12/07 05:58:35;;;;;;;6.75;3.35;;;2.30;99.90;;;;;;5041165;28;20513;-76
2020/12/07 06:01:03;;;;;;;5.68;3.33;;;2.20;99.90;;;;;;5032374;28;20386;-76
2020/12/07 06:03:30;;;;;;;5.45;3.15;;;2.20;99.90;;;;;;5016112;28;20301;-75
2020/12/07 06:05:56;;;;;;;6.45;3.25;;;2.20;99.90;;;;;;5030462;28;20021;-76
2020/12/07 06:08:31;;;;;;;5.80;3.13;;;2.20;99.90;;;;;;4999961;28;20040;-76
2020/12/07 06:11:07;;;;;;;6.82;3.42;;;2.30;99.90;;;;;;5042508;28;20033;-75
2020/12/07 06:13:34;;;;;;;6.47;3.60;;;2.20;99.90;;;;;;5013829;28;20030;-77
2020/12/07 06:16:04;;;;;;;6.47;3.53;;;2.20;99.90;;;;;;5017952;28;20022;-77
2020/12/07 06:18:36;;;;;;;6.95;3.63;;;2.20;99.90;;;;;;5033517;28;20035;-77
2020/12/07 06:21:03;;;;;;;6.93;3.90;;;2.30;99.90;;;;;;5015045;28;20040;-74
2020/12/07 06:23:37;;;;;;;5.45;3.35;;;2.20;99.90;;;;;;5033302;28;20109;-75
2020/12/07 06:26:06;;;;;;;6.68;4.13;;;2.30;99.90;;;;;;5032915;28;20033;-76
2020/12/07 06:28:37;;;;;;;11.00;4.88;;;2.30;99.90;;;;;;5017598;28;20036;-75
2020/12/07 06:31:06;;;;;;;11.45;5.20;;;2.30;99.90;;;;;;5044639;28;20029;-75
2020/12/07 06:33:57;;;;;;;6.65;3.92;;;2.30;99.90;;;;;;5033166;28;20111;-76
2020/12/07 06:36:30;;;;;;;8.50;4.57;;;2.30;99.90;;;;;;5026635;28;20431;-74
2020/12/07 06:39:01;;;;;;;8.13;5.03;;;2.30;99.90;;;;;;5009322;28;20030;-76
2020/12/07 06:41:47;;;;;;;7.95;4.22;;;2.30;99.90;;;;;;5031552;28;20033;-77
2020/12/07 06:44:15;;;;;;;9.30;5.15;;;2.30;99.90;;;;;;5032866;28;20406;-77
2020/12/07 06:47:10;;;;;;;8.77;4.70;;;2.40;99.90;;;;;;5031575;28;20422;-77
2020/12/07 06:49:48;;;;;;;8.40;4.30;;;2.30;99.90;;;;;;5045267;28;20071;-76
2020/12/07 06:52:16;;;;;;;11.32;4.40;;;2.30;99.90;;;;;;5032579;28;20033;-77
2020/12/07 06:55:05;;;;;;;8.35;4.65;;;2.30;99.90;;;;;;5032599;28;20037;-75
2020/12/07 06:57:45;;;;;;;7.05;4.80;;;2.30;99.90;;;;;;5037243;28;20025;-77
2020/12/07 07:00:20;;;;;;;12.27;5.60;;;2.30;99.90;;;;;;5032261;28;20391;-77
2020/12/07 07:02:49;;;;;;;7.32;4.30;;;2.30;99.90;;;;;;5031354;28;20033;-77
2020/12/07 07:05:17;;;;;;;8.38;4.38;;;2.30;99.90;;;;;;5028796;28;20029;-77
2020/12/07 07:07:43;;;;;;;7.88;4.95;;;2.30;99.90;;;;;;5025956;28;20044;-77
2020/12/07 07:10:11;;;;;;;6.57;4.70;;;2.30;99.90;;;;;;5016181;28;20508;-75
2020/12/07 07:12:38;;;;;;;7.57;5.13;;;2.30;99.90;;;;;;5020267;28;20129;-77
2020/12/07 07:15:06;;;;;;;7.70;4.80;;;2.30;99.90;;;;;;5020596;28;20033;-77
2020/12/07 07:17:37;;;;;;;7.82;4.57;;;2.40;99.90;;;;;;5029310;28;20124;-77
2020/12/07 07:20:06;;;;;;;6.50;4.38;;;2.30;99.90;;;;;;5008943;28;20030;-77
2020/12/07 07:22:33;;;;;;;6.30;4.25;;;2.30;99.90;;;;;;5005575;28;20163;-77
2020/12/07 07:30:14;;;;;;;7.75;4.47;;;2.20;99.90;;;;;;5007598;28;20029;-76
2020/12/07 07:32:41;;;;;;;8.07;4.35;;;2.20;99.90;;;;;;5022098;28;20041;-77
2020/12/07 07:35:11;;;;;;;8.23;4.32;;;2.20;99.90;;;;;;5024244;28;20080;-76
2020/12/07 07:37:38;;;;;;;6.07;3.97;;;2.20;99.90;;;;;;5020287;28;20096;-76
2020/12/07 07:40:16;;;;;;;7.32;4.30;;;2.20;99.90;;;;;;5024235;28;20038;-76
2020/12/07 07:42:46;;;;;;;7.63;4.72;;;2.30;99.90;;;;;;5024928;28;20501;-77
2020/12/07 07:45:13;;;;;;;7.38;5.07;;;2.40;99.90;;;;;;5032037;28;20048;-76
2020/12/07 07:47:50;;;;;;;6.72;4.60;;;2.50;99.90;;;;;;5010904;28;20033;-76
2020/12/07 08:17:50;;;;;;;8.65;5.50;;;2.60;99.90;;;;;;5022604;28;20036;-76
2020/12/07 08:20:18;;;;;;;7.82;5.00;;;2.60;99.90;;;;;;5025319;28;20108;-77
2020/12/07 08:22:56;;;;;;;7.78;4.75;;;2.60;99.90;;;;;;5017744;28;20017;-77
2020/12/07 08:25:50;;;;;;;8.02;4.97;;;2.70;99.90;;;;;;5024337;28;20036;-77
2020/12/07 08:28:23;;;;;;;7.07;4.97;;;2.70;99.90;;;;;;5019042;28;20041;-76
2020/12/07 08:31:10;;;;;;;10.75;5.57;;;2.70;99.90;;;;;;5009107;28;20125;-77
2020/12/07 08:33:38;;;;;;;9.57;5.65;;;2.70;99.90;;;;;;5010133;28;20365;-76
2020/12/07 08:36:06;;;;;;;8.07;5.28;;;2.80;99.90;;;;;;5026756;28;20029;-77
2020/12/07 08:38:40;;;;;;;8.02;5.22;;;2.80;99.90;;;;;;5009196;28;20041;-77
2020/12/07 08:41:14;;;;;;;6.72;4.68;;;2.80;99.90;;;;;;5005376;28;20041;-76
2020/12/07 08:43:43;;;;;;;9.10;5.20;;;2.80;99.90;;;;;;4999095;28;20504;-76
2020/12/07 08:46:12;;;;;;;7.70;4.75;;;2.80;99.90;;;;;;5026239;28;20224;-76
2020/12/07 08:48:39;;;;;;;7.68;4.50;;;2.80;99.90;;;;;;5032232;28;20033;-76
2020/12/07 08:51:06;;;;;;;7.45;4.95;;;2.80;99.90;;;;;;5025386;28;20399;-77
2020/12/07 08:53:31;;;;;;;7.03;5.05;;;2.90;99.90;;;;;;5001217;28;20033;-76
2020/12/07 08:55:57;;;;;;;9.07;5.25;;;2.80;99.90;;;;;;4991590;28;20029;-77
2020/12/07 08:58:23;;;;;;;6.68;4.43;;;2.80;99.90;;;;;;5039402;28;20026;-76
2020/12/07 09:00:49;;;;;;;8.90;5.10;;;2.90;99.90;;;;;;5033355;28;20087;-77
2020/12/07 09:03:15;;;;;;;7.10;4.55;;;2.90;99.90;;;;;;5034652;28;20029;-77
2020/12/07 09:05:41;;;;;;;8.15;5.00;;;2.90;99.90;;;;;;5034420;28;20081;-76
2020/12/07 09:08:07;;;;;;;8.40;5.43;;;2.90;99.90;;;;;;5034864;28;20021;-76
2020/12/07 09:10:34;;;;;;;9.32;5.07;;;3.00;99.90;;;;;;5028321;28;20041;-77
2020/12/07 09:13:00;;;;;;;9.65;5.18;;;3.00;99.90;;;;;;5035895;28;20041;-76
2020/12/07 09:15:26;;;;;;;8.23;5.13;;;3.00;99.90;;;;;;5015555;28;20037;-76
2020/12/07 09:17:52;;;;;;;7.50;5.10;;;3.00;99.90;;;;;;5041529;28;20524;-77
2020/12/07 09:20:17;;;;;;;7.85;4.93;;;3.00;99.90;;;;;;5034176;28;20025;-75
2020/12/07 09:22:43;;;;;;;7.35;4.47;;;3.00;99.90;;;;;;5033016;28;20442;-76
2020/12/07 09:25:09;;;;;;;7.78;4.15;;;3.00;99.90;;;;;;5016277;28;20048;-76
2020/12/07 09:27:34;;;;;;;7.18;4.68;;;3.00;99.90;;;;;;5033332;28;20029;-75
2020/12/07 09:30:00;;;;;;;7.47;4.10;;;2.90;99.90;;;;;;5042236;28;20044;-77
2020/12/07 09:32:26;;;;;;;8.32;4.78;;;2.90;99.90;;;;;;5021243;28;20053;-77
2020/12/07 09:34:51;;;;;;;6.38;4.20;;;2.90;99.90;;;;;;5034246;28;20053;-76
2020/12/07 09:37:17;;;;;;;5.50;3.83;;;2.90;99.90;;;;;;5021722;28;20066;-76
2020/12/07 09:39:43;;;;;;;7.07;4.65;;;2.90;99.90;;;;;;5016652;28;20033;-75
2020/12/07 09:42:08;;;;;;;5.43;3.67;;;2.90;99.90;;;;;;5032611;28;20041;-76
2020/12/07 09:44:34;;;;;;;5.97;3.50;;;2.90;99.90;;;;;;5034002;28;20117;-76
2020/12/07 09:47:00;;;;;;;5.70;3.80;;;2.90;99.90;;;;;;5035431;28;20047;-76
2020/12/07 09:49:26;;;;;;;5.30;3.53;;;2.90;99.90;;;;;;5028641;28;20029;-76
2020/12/07 09:51:52;;;;;;;5.50;3.53;;;2.90;99.90;;;;;;5018965;28;20033;-75
2020/12/07 09:54:17;;;;;;;5.35;3.40;;;2.90;99.90;;;;;;5033151;28;20029;-74
2020/12/07 09:56:43;;;;;;;4.93;3.60;;;2.90;99.90;;;;;;5027116;28;20049;-76
2020/12/07 09:59:09;;;;;;;5.43;3.60;;;2.80;99.90;;;;;;5028832;28;20068;-76
2020/12/07 10:01:35;;;;;;;5.97;3.63;;;2.80;99.90;;;;;;5027975;28;20068;-74
2020/12/07 10:04:00;;;;;;;4.10;3.30;;;2.80;99.90;;;;;;5011431;28;20041;-75
2020/12/07 10:06:26;;;;;;;4.22;3.25;;;2.80;99.90;;;;;;5026561;28;20033;-75
2020/12/07 10:08:52;;;;;;;6.15;3.50;;;2.80;99.90;;;;;;5029927;28;20037;-75
2020/12/07 10:11:18;;;;;;;5.45;3.50;;;2.80;99.90;;;;;;5036665;28;20044;-75
2020/12/07 10:13:44;;;;;;;4.95;3.40;;;2.90;99.90;;;;;;5004717;28;20036;-74
2020/12/07 10:16:10;;;;;;;4.28;3.03;;;2.90;99.90;;;;;;4984749;28;20034;-76
2020/12/07 10:18:36;;;;;;;6.03;3.53;;;2.90;99.90;;;;;;5025785;28;20487;-75
2020/12/07 10:21:01;;;;;;;4.78;3.35;;;2.80;99.90;;;;;;5024863;28;20048;-76
2020/12/07 10:23:27;;;;;;;3.65;3.17;;;2.80;99.90;;;;;;5014983;28;20719;-75
2020/12/07 10:25:53;;;;;;;3.95;3.20;;;2.80;99.90;;;;;;4999683;28;20037;-75
2020/12/07 10:28:19;;;;;;;4.22;3.40;;;2.90;99.90;;;;;;5028724;28;20038;-75
2020/12/07 10:30:45;;;;;;;5.22;3.20;;;2.90;99.90;;;;;;5040939;28;20120;-77
2020/12/07 10:33:11;;;;;;;4.30;2.97;;;2.90;99.90;;;;;;5029449;28;20105;-76
2020/12/07 10:35:37;;;;;;;4.57;3.17;;;2.90;99.90;;;;;;5010631;28;20039;-77
2020/12/07 10:38:03;;;;;;;4.55;3.08;;;2.90;99.90;;;;;;5035962;28;20022;-77
2020/12/07 10:40:29;;;;;;;4.03;3.10;;;2.90;99.90;;;;;;5028732;28;20518;-77
2020/12/07 10:42:55;;;;;;;3.58;2.78;;;2.90;99.90;;;;;;5028298;28;20029;-75
2020/12/07 10:45:21;;;;;;;4.60;2.90;;;2.90;99.90;;;;;;5015320;28;20029;-76
2020/12/07 10:47:48;;;;;;;4.47;3.13;;;3.00;99.90;;;;;;5006083;28;20032;-75
2020/12/07 10:50:14;;;;;;;4.57;3.00;;;3.00;99.90;;;;;;5038531;28;20071;-76
2020/12/07 10:52:40;;;;;;;3.95;2.60;;;3.00;99.90;;;;;;4989282;28;20131;-76
2020/12/07 10:55:05;;;;;;;3.65;3.05;;;3.00;99.90;;;;;;4994679;28;20038;-75
2020/12/07 10:57:31;;;;;;;3.35;2.70;;;3.10;99.90;;;;;;5026736;28;20022;-76
2020/12/07 10:59:57;;;;;;;4.45;2.65;;;3.10;99.90;;;;;;5010175;28;20022;-77
2020/12/07 11:02:22;;;;;;;2.92;2.22;;;3.10;99.90;;;;;;5027903;28;20056;-76
2020/12/07 11:04:48;;;;;;;4.18;2.85;;;3.10;99.90;;;;;;5028770;28;20044;-76
2020/12/07 11:07:17;;;;;;;3.90;2.58;;;3.10;99.90;;;;;;5023993;28;20096;-76
2020/12/07 11:09:42;;;;;;;3.53;2.72;;;3.10;99.90;;;;;;5018735;28;20037;-74
2020/12/07 11:12:14;;;;;;;2.63;2.35;;;3.10;99.90;;;;;;5035907;28;20680;-77
2020/12/07 11:14:40;;;;;;;2.88;2.40;;;3.10;99.90;;;;;;5027784;28;20475;-76
2020/12/07 11:17:08;;;;;;;4.40;2.42;;;3.10;99.90;;;;;;5026140;28;20028;-76
2020/12/07 11:19:34;;;;;;;3.15;2.78;;;3.10;99.90;;;;;;5028795;28;20057;-76
2020/12/07 11:21:59;;;;;;;3.03;2.05;;;3.20;99.90;;;;;;5008650;28;20083;-76
2020/12/07 11:24:25;;;;;;;3.20;2.78;;;3.20;99.90;;;;;;5027298;28;20491;-75
2020/12/07 11:26:51;;;;;;;3.05;2.53;;;3.20;99.90;;;;;;5025400;28;20171;-76
2020/12/07 11:29:16;;;;;;;3.33;2.17;;;3.20;99.90;;;;;;5029482;28;20036;-76
2020/12/07 11:31:49;;;;;;;2.22;1.85;;;3.20;99.90;;;;;;5038586;28;20137;-75
2020/12/07 11:34:21;;;;;;;3.00;2.22;;;3.20;99.90;;;;;;5011121;28;20041;-75
2020/12/07 11:36:49;;;;;;;2.58;1.75;;;3.20;99.90;;;;;;5030451;22;20045;-86
2020/12/07 11:43:29;;;;;;;3.05;2.53;;;3.20;99.90;;;;;;4959057;28;20041;-86
2020/12/07 11:52:16;;;;;;;4.80;2.97;;;3.20;99.90;;;;;;4988346;28;20065;-76
2020/12/07 11:54:42;;;;;;;3.30;2.67;;;3.20;99.90;;;;;;4991687;28;20466;-76
2020/12/07 11:57:08;;;;;;;3.88;2.30;;;3.20;99.90;;;;;;4990638;28;20030;-76
2020/12/07 11:59:34;;;;;;;3.13;2.30;;;3.20;99.90;;;;;;4991193;28;20053;-75
2020/12/07 12:02:00;;;;;;;3.58;2.63;;;3.20;99.90;;;;;;4988241;28;20078;-75
2020/12/07 12:04:25;;;;;;;3.83;2.92;;;3.20;99.90;;;;;;4987158;28;20559;-75
2020/12/07 12:06:51;;;;;;;3.97;2.80;;;3.20;99.90;;;;;;4974918;28;20092;-75
2020/12/07 12:09:17;;;;;;;3.42;2.47;;;3.20;99.90;;;;;;4990665;28;20031;-75
2020/12/07 12:11:44;;;;;;;2.95;2.38;;;3.10;99.90;;;;;;4975217;28;20112;-75
2020/12/07 12:14:11;;;;;;;3.92;2.63;;;3.20;99.90;;;;;;4991528;28;20041;-75
2020/12/07 12:16:39;;;;;;;3.85;2.38;;;3.20;99.90;;;;;;4991454;28;20030;-75
2020/12/07 12:19:10;;;;;;;3.60;2.83;;;3.20;99.90;;;;;;4987890;28;20390;-75
2020/12/07 12:21:37;;;;;;;4.32;2.63;;;3.20;99.90;;;;;;4987080;28;20050;-75
2020/12/07 12:24:05;;;;;;;3.10;2.40;;;3.20;99.90;;;;;;4991561;28;20137;-75
2020/12/07 12:26:32;;;;;;;3.42;2.50;;;3.20;99.90;;;;;;4988966;28;20116;-74
2020/12/07 12:28:59;;;;;;;4.47;2.33;;;3.20;99.90;;;;;;4990705;28;20034;-75
2020/12/07 12:31:24;;;;;;;4.97;2.85;;;3.20;99.90;;;;;;4989709;28;20057;-74
2020/12/07 12:33:50;;;;;;;2.97;2.30;;;3.10;99.90;;;;;;4991613;28;20031;-74
2020/12/07 12:36:21;;;;;;;3.40;2.55;;;3.10;99.90;;;;;;4991941;28;20084;-74
2020/12/07 12:38:48;;;;;;;4.63;2.50;;;3.10;99.90;;;;;;4989485;28;20041;-74
2020/12/07 12:41:15;;;;;;;2.88;2.17;;;3.10;99.90;;;;;;4989081;28;20037;-74
2020/12/07 12:43:41;;;;;;;3.05;2.25;;;3.10;99.90;;;;;;5000589;28;20035;-74
2020/12/07 12:46:07;;;;;;;2.63;2.15;;;3.10;99.90;;;;;;4980938;28;20057;-74
2020/12/07 12:48:33;;;;;;;4.43;2.40;;;3.10;99.90;;;;;;4988293;28;20117;-75
2020/12/07 12:51:00;;;;;;;2.53;2.13;;;3.10;99.90;;;;;;4988858;28;20062;-74
2020/12/07 12:53:27;;;;;;;2.97;2.00;;;3.10;99.90;;;;;;4996767;28;20061;-74
2020/12/07 12:55:53;;;;;;;3.53;2.35;;;3.10;99.90;;;;;;4990905;28;20034;-75
2020/12/07 12:58:18;;;;;;;2.65;1.95;;;3.10;99.90;;;;;;4989918;28;20093;-74
2020/12/07 13:00:46;;;;;;;2.95;2.20;;;3.10;99.90;;;;;;4989645;28;20523;-75
2020/12/07 13:03:12;;;;;;;3.88;2.42;;;3.10;99.90;;;;;;4991249;28;20173;-74
2020/12/07 13:05:38;;;;;;;3.08;2.30;;;3.10;99.90;;;;;;4990559;28;20135;-74
2020/12/07 13:08:04;;;;;;;1.98;1.73;;;3.10;99.90;;;;;;4990417;28;20030;-74
2020/12/07 13:10:30;;;;;;;3.40;2.03;;;3.00;99.90;;;;;;4991151;28;20116;-74
2020/12/07 13:12:55;;;;;;;4.68;2.40;;;3.00;99.90;;;;;;4990352;28;20067;-74
2020/12/07 13:15:23;;;;;;;2.92;2.00;;;3.00;99.90;;;;;;4980361;28;20041;-74
2020/12/07 13:18:09;;;;;;;3.35;2.20;;;3.10;99.90;;;;;;4990788;28;20112;-74
2020/12/07 13:20:52;;;;;;;;;;;3.00;99.90;;;;;;4991175;28;20417;-75
2020/12/07 13:23:29;;;;;;;2.10;1.90;;;3.00;99.90;;;;;;4991393;28;19914;-74
2020/12/07 13:28:21;;;;;;;3.40;2.15;;;3.00;99.90;;;;;;4989518;28;20141;-75
2020/12/07 13:30:47;;;;;;;3.75;2.40;;;3.00;99.90;;;;;;4986646;28;20034;-75
2020/12/07 13:33:13;;;;;;;4.00;2.35;;;3.00;99.90;;;;;;4986618;28;20503;-74
2020/12/07 13:35:41;;;;;;;3.72;2.47;;;3.00;99.90;;;;;;4999766;28;20030;-74
2020/12/07 13:38:08;;;;;;;3.58;2.67;;;3.00;99.90;;;;;;5005530;28;20484;-74
2020/12/07 13:40:34;;;;;;;3.15;2.33;;;3.00;99.90;;;;;;4991405;28;20047;-74
2020/12/07 13:43:00;;;;;;;3.17;2.30;;;3.00;99.90;;;;;;4994241;28;20140;-74
2020/12/07 13:45:27;;;;;;;3.13;2.33;;;3.00;99.90;;;;;;4994900;28;20818;-74